createdAt,value
2022-12-27T00:01:41.627Z,-0.23
2022-12-27T00:03:39.764Z,-0.29
2022-12-27T00:05:38.051Z,-0.29
2022-12-27T00:07:37.169Z,-0.27
2022-12-27T00:09:35.986Z,-0.23
2022-12-27T00:11:34.375Z,-0.24
2022-12-27T00:13:33.836Z,-0.27
2022-12-27T00:15:34.114Z,-0.32
2022-12-27T00:17:32.284Z,-0.32
2022-12-27T00:19:30.577Z,-0.41
2022-12-27T00:21:28.833Z,-0.38
2022-12-27T00:23:27.481Z,-0.42
2022-12-27T00:25:25.743Z,-0.40
2022-12-27T00:27:23.892Z,-0.39
2022-12-27T00:29:23.588Z,-0.40
2022-12-27T00:31:22.979Z,-0.28
2022-12-27T00:33:21.119Z,-0.25
2022-12-27T00:35:19.572Z,-0.19
2022-12-27T00:37:18.236Z,-0.18
2022-12-27T00:39:16.489Z,-0.17
2022-12-27T00:41:15.730Z,-0.19
2022-12-27T00:43:13.903Z,-0.22
2022-12-27T00:45:13.838Z,-0.25
2022-12-27T00:47:13.216Z,-0.24
2022-12-27T00:49:11.465Z,-0.28
2022-12-27T00:51:13.144Z,-0.39
2022-12-27T00:53:12.530Z,-0.39
2022-12-27T00:55:11.786Z,-0.41
2022-12-27T00:57:09.963Z,-0.47
2022-12-27T00:59:08.412Z,-0.51
2022-12-27T01:01:10.195Z,-0.53
2022-12-27T01:03:08.445Z,-0.51
2022-12-27T01:05:07.873Z,-0.51
2022-12-27T01:07:06.045Z,-0.50
2022-12-27T01:09:05.872Z,-0.53
2022-12-27T01:11:04.454Z,-0.60
2022-12-27T01:13:03.656Z,-0.64
2022-12-27T01:15:01.946Z,-0.59
2022-12-27T01:17:01.591Z,-0.57
2022-12-27T01:19:00.581Z,-0.56
2022-12-27T01:20:58.806Z,-0.56
2022-12-27T01:22:56.931Z,-0.60
2022-12-27T01:24:55.126Z,-0.64
2022-12-27T01:26:53.305Z,-0.67
2022-12-27T01:28:52.478Z,-0.58
2022-12-27T01:30:50.732Z,-0.56
2022-12-27T01:32:50.394Z,-0.58
2022-12-27T01:34:48.608Z,-0.63
2022-12-27T01:36:47.185Z,-0.68
2022-12-27T01:38:48.013Z,-0.68
2022-12-27T01:40:46.317Z,-0.64
2022-12-27T01:42:52.183Z,-0.69
2022-12-27T01:44:58.024Z,-0.38
2022-12-27T01:46:56.765Z,-0.40
2022-12-27T01:48:56.937Z,-0.52
2022-12-27T01:51:00.953Z,-0.61
2022-12-27T01:53:06.877Z,-0.67
2022-12-27T01:55:11.944Z,-0.70
2022-12-27T01:57:11.764Z,-0.68
2022-12-27T01:59:11.458Z,-0.70
2022-12-27T02:01:14.309Z,-0.69
2022-12-27T02:03:13.651Z,-0.68
2022-12-27T02:05:15.730Z,-0.68
2022-12-27T02:07:14.193Z,-0.65
2022-12-27T02:09:22.040Z,-0.64
2022-12-27T02:11:44.451Z,-0.63
2022-12-27T02:13:45.010Z,-0.61
2022-12-27T02:15:43.307Z,-0.67
2022-12-27T02:17:40.629Z,-0.70
2022-12-27T02:19:49.545Z,-0.74
2022-12-27T02:22:05.212Z,-0.77
2022-12-27T02:24:29.611Z,-0.78
2022-12-27T02:26:47.515Z,-0.72
2022-12-27T02:29:14.518Z,-0.76
2022-12-27T02:31:17.825Z,-0.70
2022-12-27T02:33:22.976Z,-0.70
2022-12-27T02:35:26.739Z,-0.73
2022-12-27T02:37:28.301Z,-0.70
2022-12-27T02:39:28.503Z,-0.66
2022-12-27T02:41:46.008Z,-0.58
2022-12-27T02:44:01.940Z,-0.61
2022-12-27T02:46:24.968Z,-0.67
2022-12-27T02:48:40.362Z,-0.69
2022-12-27T02:51:11.386Z,-0.72
2022-12-27T02:53:17.053Z,-0.75
2022-12-27T02:55:32.812Z,-0.81
2022-12-27T02:57:39.447Z,-0.84
2022-12-27T03:00:19.840Z,-0.83
2022-12-27T03:02:49.190Z,-0.79
2022-12-27T03:05:07.696Z,-0.77
2022-12-27T03:07:23.861Z,-0.84
2022-12-27T03:10:01.354Z,-0.89
2022-12-27T03:12:16.952Z,-0.87
2022-12-27T03:14:39.683Z,-0.90
2022-12-27T03:16:55.915Z,-0.93
2022-12-27T03:19:13.009Z,-0.95
2022-12-27T03:21:29.766Z,-1.01
2022-12-27T03:23:46.871Z,-1.07
2022-12-27T03:25:48.086Z,-1.11
2022-12-27T03:28:09.785Z,-1.09
2022-12-27T03:30:27.345Z,-1.10
2022-12-27T03:32:43.815Z,-1.13
2022-12-27T03:34:51.687Z,-1.17
2022-12-27T03:37:07.604Z,-1.14
2022-12-27T03:39:11.778Z,-1.14
2022-12-27T03:41:30.754Z,-1.18
2022-12-27T03:43:29.301Z,-1.11
2022-12-27T03:45:55.447Z,-1.18
2022-12-27T03:47:57.733Z,-1.17
2022-12-27T03:50:05.864Z,-1.22
2022-12-27T03:52:08.256Z,-1.24
2022-12-27T03:54:10.564Z,-1.26
2022-12-27T03:56:10.836Z,-1.28
2022-12-27T03:58:09.118Z,-1.37
2022-12-27T04:00:09.049Z,-1.24
2022-12-27T04:02:14.964Z,-1.24
2022-12-27T04:04:13.419Z,-1.26
2022-12-27T04:06:12.857Z,-1.29
2022-12-27T04:08:28.548Z,-1.32
2022-12-27T04:10:43.920Z,-1.34
2022-12-27T04:12:59.449Z,-1.38
2022-12-27T04:15:14.849Z,-1.37
2022-12-27T04:17:30.382Z,-1.37
2022-12-27T04:19:45.748Z,-1.35
2022-12-27T04:22:02.644Z,-1.35
2022-12-27T04:24:18.205Z,-1.36
2022-12-27T04:26:33.681Z,-1.38
2022-12-27T04:28:49.620Z,-1.40
2022-12-27T04:31:05.201Z,-1.43
2022-12-27T04:33:20.727Z,-1.43
2022-12-27T04:35:19.010Z,-1.46
2022-12-27T04:37:20.599Z,-1.49
2022-12-27T04:39:18.987Z,-1.53
2022-12-27T04:41:34.550Z,-1.54
2022-12-27T04:43:49.873Z,-1.55
2022-12-27T04:46:05.301Z,-1.59
2022-12-27T04:48:21.179Z,-1.61
2022-12-27T04:50:44.605Z,-1.67
2022-12-27T04:53:01.418Z,-1.67
2022-12-27T04:55:00.456Z,-1.70
2022-12-27T04:56:58.524Z,-1.62
2022-12-27T04:59:14.317Z,-1.59
2022-12-27T05:01:30.015Z,-1.61
2022-12-27T05:03:28.367Z,-1.62
2022-12-27T05:05:27.118Z,-1.55
2022-12-27T05:07:44.998Z,-1.59
2022-12-27T05:10:02.416Z,-1.53
2022-12-27T05:12:14.517Z,-1.53
2022-12-27T05:14:16.259Z,-1.47
2022-12-27T05:16:14.725Z,-1.40
2022-12-27T05:18:12.802Z,-1.32
2022-12-27T05:20:12.415Z,-1.22
2022-12-27T05:22:27.927Z,-0.89
2022-12-27T05:24:45.466Z,-1.14
2022-12-27T05:26:45.092Z,-1.24
2022-12-27T05:28:43.241Z,-1.29
2022-12-27T05:30:44.075Z,-1.32
2022-12-27T05:32:42.340Z,-1.31
2022-12-27T05:34:40.607Z,-1.37
2022-12-27T05:36:38.791Z,-1.37
2022-12-27T05:38:37.161Z,-1.32
2022-12-27T05:40:35.723Z,-1.27
2022-12-27T05:42:35.323Z,-1.16
2022-12-27T05:44:33.532Z,-1.11
2022-12-27T05:46:31.692Z,-1.09
2022-12-27T05:48:30.034Z,-1.03
2022-12-27T05:50:28.568Z,-1.05
2022-12-27T05:52:41.520Z,-1.10
2022-12-27T05:54:39.684Z,-1.14
2022-12-27T05:56:37.724Z,-1.21
2022-12-27T05:58:37.344Z,-1.30
2022-12-27T06:00:35.550Z,-1.40
2022-12-27T06:02:33.983Z,-1.47
2022-12-27T06:04:32.365Z,-1.52
2022-12-27T06:06:30.527Z,-1.56
2022-12-27T06:08:29.058Z,-1.62
2022-12-27T06:10:27.165Z,-1.63
2022-12-27T06:12:25.308Z,-1.62
2022-12-27T06:14:24.977Z,-1.62
2022-12-27T06:16:23.849Z,-1.46
2022-12-27T06:18:22.098Z,-1.21
2022-12-27T06:20:20.687Z,-1.05
2022-12-27T06:22:18.753Z,-0.98
2022-12-27T06:24:17.909Z,-0.68
2022-12-27T06:26:17.993Z,-0.69
2022-12-27T06:28:16.215Z,-0.76
2022-12-27T06:30:15.927Z,-0.83
2022-12-27T06:32:13.994Z,-0.92
2022-12-27T06:34:12.759Z,-0.94
2022-12-27T06:36:12.795Z,-0.86
2022-12-27T06:38:11.035Z,-0.77
2022-12-27T06:40:10.429Z,-0.59
2022-12-27T06:42:08.729Z,-0.51
2022-12-27T06:44:06.981Z,-0.42
2022-12-27T06:46:10.279Z,-0.36
2022-12-27T06:48:11.872Z,-0.29
2022-12-27T06:50:10.532Z,-0.31
2022-12-27T06:52:08.701Z,-0.16
2022-12-27T06:54:07.045Z,0.04
2022-12-27T06:56:06.159Z,-0.03
2022-12-27T06:58:04.555Z,-0.08
2022-12-27T07:00:02.723Z,-0.15
2022-12-27T07:02:02.518Z,-0.04
2022-12-27T07:04:02.107Z,0.07
2022-12-27T07:06:03.227Z,0.10
2022-12-27T07:08:01.393Z,0.25
2022-12-27T07:09:59.754Z,0.36
2022-12-27T07:11:58.076Z,0.47
2022-12-27T07:13:57.105Z,0.63
2022-12-27T07:15:55.383Z,0.88
2022-12-27T07:17:54.821Z,1.03
2022-12-27T07:19:53.048Z,1.16
2022-12-27T07:21:51.739Z,1.19
2022-12-27T07:23:50.888Z,1.31
2022-12-27T07:25:49.075Z,1.36
2022-12-27T07:27:47.132Z,1.43
2022-12-27T07:29:45.963Z,1.48
2022-12-27T07:31:44.274Z,1.39
2022-12-27T07:33:43.968Z,1.41
2022-12-27T07:35:45.051Z,1.34
2022-12-27T07:37:43.556Z,1.23
2022-12-27T07:39:41.752Z,1.14
2022-12-27T07:41:39.829Z,1.10
2022-12-27T07:43:38.277Z,1.08
2022-12-27T07:45:36.911Z,1.05
2022-12-27T07:47:34.970Z,1.10
2022-12-27T07:49:34.679Z,1.25
2022-12-27T07:51:32.859Z,1.44
2022-12-27T07:53:31.680Z,1.48
2022-12-27T07:55:29.863Z,1.50
2022-12-27T07:57:29.650Z,1.62
2022-12-27T07:59:28.574Z,1.63
2022-12-27T08:01:50.685Z,1.59
2022-12-27T08:03:49.319Z,1.70
2022-12-27T08:05:49.760Z,1.73
2022-12-27T08:07:47.975Z,1.78
2022-12-27T08:09:47.905Z,1.83
2022-12-27T08:11:46.017Z,1.86
2022-12-27T08:13:44.039Z,1.96
2022-12-27T08:15:43.797Z,2.14
2022-12-27T08:17:41.924Z,2.11
2022-12-27T08:19:40.252Z,2.19
2022-12-27T08:21:39.824Z,2.33
2022-12-27T08:23:38.023Z,2.40
2022-12-27T08:25:36.859Z,2.50
2022-12-27T08:27:35.404Z,2.68
2022-12-27T08:29:33.696Z,2.58
2022-12-27T08:31:31.856Z,2.68
2022-12-27T08:33:30.323Z,2.80
2022-12-27T08:37:48.849Z,3.11
2022-12-27T08:39:47.013Z,3.26
2022-12-27T08:41:45.259Z,3.22
2022-12-27T08:43:43.594Z,3.35
2022-12-27T08:45:41.809Z,3.96
2022-12-27T08:47:40.147Z,5.62
2022-12-27T08:49:38.349Z,8.00
2022-12-27T08:51:41.254Z,9.83
2022-12-27T08:53:41.205Z,11.88
2022-12-27T08:55:39.561Z,13.56
2022-12-27T08:57:37.696Z,12.61
2022-12-27T08:59:35.889Z,13.77
2022-12-27T09:01:34.263Z,13.51
2022-12-27T09:03:32.536Z,14.44
2022-12-27T09:05:34.150Z,14.05
2022-12-27T09:07:35.646Z,13.93
2022-12-27T09:09:35.249Z,14.91
2022-12-27T09:11:35.794Z,14.88
2022-12-27T09:13:34.007Z,15.06
2022-12-27T09:15:33.488Z,15.04
2022-12-27T09:17:32.207Z,15.36
2022-12-27T09:19:30.289Z,15.21
2022-12-27T09:21:30.428Z,15.01
2022-12-27T09:23:28.644Z,15.43
2022-12-27T09:25:28.289Z,14.86
2022-12-27T09:27:26.495Z,14.93
2022-12-27T09:29:24.604Z,14.85
2022-12-27T09:31:23.789Z,15.13
2022-12-27T09:33:21.871Z,15.11
2022-12-27T09:35:20.069Z,15.92
2022-12-27T09:37:18.244Z,16.82
2022-12-27T09:39:17.347Z,16.81
2022-12-27T09:42:33.798Z,16.48
2022-12-27T09:44:01.441Z,16.42
2022-12-27T09:46:00.158Z,15.69
2022-12-27T09:48:02.512Z,15.12
2022-12-27T09:50:05.216Z,15.20
2022-12-27T09:52:11.204Z,15.14
2022-12-27T09:54:15.323Z,15.83
2022-12-27T09:56:24.385Z,15.94
2022-12-27T09:58:44.325Z,16.27
2022-12-27T10:00:46.385Z,16.07
2022-12-27T10:02:45.620Z,15.33
2022-12-27T10:05:18.641Z,15.26
2022-12-27T10:07:10.851Z,14.80
2022-12-27T10:09:26.975Z,15.95
2022-12-27T10:11:37.234Z,16.77
2022-12-27T10:13:48.100Z,16.80
2022-12-27T10:15:52.507Z,17.57
2022-12-27T10:18:02.165Z,17.75
2022-12-27T10:20:12.276Z,17.53
2022-12-27T10:22:21.723Z,16.74
2022-12-27T10:24:25.244Z,17.14
2022-12-27T10:26:24.190Z,18.27
2022-12-27T10:28:28.354Z,17.43
2022-12-27T10:30:29.373Z,17.26
2022-12-27T10:32:28.219Z,17.12
2022-12-27T10:34:26.382Z,17.77
2022-12-27T10:36:27.257Z,17.18
2022-12-27T10:38:26.156Z,17.26
2022-12-27T10:40:34.046Z,17.37
2022-12-27T10:42:38.576Z,18.13
2022-12-27T10:44:36.437Z,17.50
2022-12-27T10:46:36.089Z,17.90
2022-12-27T10:49:02.750Z,17.41
2022-12-27T10:50:56.847Z,17.91
2022-12-27T10:52:57.711Z,18.09
2022-12-27T10:54:57.691Z,17.82
2022-12-27T10:56:57.063Z,18.11
2022-12-27T10:58:59.095Z,17.74
2022-12-27T11:00:58.566Z,18.71
2022-12-27T11:03:00.860Z,18.83
2022-12-27T11:05:00.572Z,19.05
2022-12-27T11:07:14.937Z,19.10
2022-12-27T11:09:31.125Z,19.20
2022-12-27T11:11:29.348Z,19.36
2022-12-27T11:13:27.513Z,19.01
2022-12-27T11:15:27.873Z,18.93
2022-12-27T11:17:30.248Z,19.43
2022-12-27T11:19:29.974Z,19.19
2022-12-27T11:21:30.270Z,19.17
2022-12-27T11:23:32.276Z,17.84
2022-12-27T11:25:32.021Z,15.65
2022-12-27T11:27:31.709Z,14.45
2022-12-27T11:29:32.355Z,13.30
2022-12-27T11:31:35.371Z,12.29
2022-12-27T11:33:39.388Z,11.63
2022-12-27T11:35:49.350Z,11.28
2022-12-27T11:37:48.985Z,10.86
2022-12-27T11:39:49.491Z,10.34
2022-12-27T11:41:53.283Z,10.43
2022-12-27T11:43:56.985Z,10.56
2022-12-27T11:45:57.824Z,10.75
2022-12-27T11:48:01.266Z,10.98
2022-12-27T11:50:08.890Z,11.19
2022-12-27T11:52:35.169Z,11.43
2022-12-27T11:54:50.284Z,11.63
2022-12-27T11:56:53.933Z,11.49
2022-12-27T11:59:21.088Z,11.60
2022-12-27T12:01:36.317Z,11.45
2022-12-27T12:04:03.816Z,11.11
2022-12-27T12:06:15.633Z,10.86
2022-12-27T12:08:52.004Z,11.00
2022-12-27T12:11:02.873Z,11.12
2022-12-27T12:13:24.017Z,11.01
2022-12-27T12:16:01.401Z,10.79
2022-12-27T12:18:12.579Z,10.55
2022-12-27T12:20:39.098Z,10.36
2022-12-27T12:23:07.109Z,10.50
2022-12-27T12:25:50.263Z,10.47
2022-12-27T12:28:29.967Z,10.63
2022-12-27T12:30:56.361Z,10.89
2022-12-27T12:33:04.754Z,11.07
2022-12-27T12:35:28.806Z,11.07
2022-12-27T12:37:52.594Z,10.89
2022-12-27T12:40:16.149Z,10.87
2022-12-27T12:42:23.168Z,10.84
2022-12-27T12:44:51.081Z,10.78
2022-12-27T12:46:58.745Z,10.76
2022-12-27T12:49:20.400Z,10.71
2022-12-27T12:51:37.230Z,10.79
2022-12-27T12:53:52.012Z,10.92
2022-12-27T12:56:04.326Z,11.04
2022-12-27T12:58:12.632Z,10.87
2022-12-27T13:00:37.798Z,10.62
2022-12-27T13:02:50.778Z,10.49
2022-12-27T13:05:05.966Z,10.46
2022-12-27T13:07:27.853Z,10.52
2022-12-27T13:09:39.651Z,10.59
2022-12-27T13:11:53.187Z,10.65
2022-12-27T13:14:08.422Z,10.65
2022-12-27T13:16:21.607Z,10.67
2022-12-27T13:18:30.107Z,10.74
2022-12-27T13:20:51.078Z,10.83
2022-12-27T13:23:01.413Z,10.83
2022-12-27T13:25:11.388Z,10.86
2022-12-27T13:27:16.750Z,10.88
2022-12-27T13:29:53.098Z,10.82
2022-12-27T13:32:03.127Z,10.77
2022-12-27T13:34:19.659Z,10.74
2022-12-27T13:36:26.877Z,10.92
2022-12-27T13:38:40.240Z,10.96
2022-12-27T13:41:13.376Z,10.83
2022-12-27T13:43:48.263Z,10.83
2022-12-27T13:46:11.481Z,10.78
2022-12-27T13:48:34.890Z,10.63
2022-12-27T13:51:02.871Z,10.62
2022-12-27T13:53:20.433Z,10.54
2022-12-27T13:55:43.477Z,10.54
2022-12-27T13:58:10.118Z,10.55
2022-12-27T14:00:18.556Z,10.58
2022-12-27T14:03:05.942Z,10.51
2022-12-27T14:05:46.654Z,10.69
2022-12-27T14:08:01.584Z,10.66
2022-12-27T14:10:18.862Z,10.56
2022-12-27T14:12:45.299Z,10.38
2022-12-27T14:14:45.626Z,10.51
2022-12-27T14:16:59.562Z,10.47
2022-12-27T14:19:16.605Z,10.26
2022-12-27T14:21:52.499Z,10.09
2022-12-27T14:24:02.887Z,10.01
2022-12-27T14:26:41.175Z,9.93
2022-12-27T14:29:22.168Z,9.83
2022-12-27T14:31:50.732Z,9.81
2022-12-27T14:34:44.713Z,9.74
2022-12-27T14:37:10.297Z,9.59
2022-12-27T14:39:48.845Z,9.55
2022-12-27T14:42:38.123Z,9.48
2022-12-27T14:45:13.884Z,9.38
2022-12-27T14:47:35.124Z,9.33
2022-12-27T14:50:25.677Z,9.19
2022-12-27T14:53:21.295Z,9.05
2022-12-27T14:55:46.681Z,8.98
2022-12-27T14:58:37.623Z,8.92
2022-12-27T15:01:07.862Z,8.84
2022-12-27T15:03:24.373Z,8.79
2022-12-27T15:05:42.725Z,8.87
2022-12-27T15:07:58.845Z,8.92
2022-12-27T15:10:19.180Z,8.91
2022-12-27T15:12:31.502Z,8.83
2022-12-27T15:14:50.078Z,8.63
2022-12-27T15:17:15.479Z,8.48
2022-12-27T15:19:45.275Z,8.40
2022-12-27T15:22:01.564Z,8.31
2022-12-27T15:24:09.972Z,8.23
2022-12-27T15:26:21.356Z,8.23
2022-12-27T15:28:31.383Z,8.32
2022-12-27T15:30:41.461Z,8.36
2022-12-27T15:32:53.070Z,8.31
2022-12-27T15:35:05.015Z,8.33
2022-12-27T15:37:12.940Z,8.29
2022-12-27T15:39:53.853Z,8.24
2022-12-27T15:42:06.936Z,8.35
2022-12-27T15:44:40.680Z,8.27
2022-12-27T15:47:23.489Z,8.17
2022-12-27T15:50:20.187Z,8.22
2022-12-27T15:52:46.998Z,8.29
2022-12-27T15:55:02.623Z,8.27
2022-12-27T15:57:32.527Z,8.27
2022-12-27T15:59:41.535Z,8.18
2022-12-27T16:01:40.316Z,8.09
2022-12-27T16:03:40.741Z,8.02
2022-12-27T16:05:44.823Z,8.03
2022-12-27T16:07:47.015Z,8.01
2022-12-27T16:09:48.303Z,7.95
2022-12-27T16:12:03.435Z,7.87
2022-12-27T16:14:28.156Z,7.88
2022-12-27T16:16:55.225Z,7.88
2022-12-27T16:19:20.250Z,7.84
2022-12-27T16:21:22.486Z,7.88
2022-12-27T16:23:24.609Z,7.87
2022-12-27T16:25:31.826Z,7.86
2022-12-27T16:27:32.941Z,7.82
2022-12-27T16:29:34.738Z,7.74
2022-12-27T16:31:37.932Z,7.57
2022-12-27T16:33:41.054Z,7.45
2022-12-27T16:35:40.841Z,7.42
2022-12-27T16:37:45.472Z,7.37
2022-12-27T16:39:59.324Z,7.32
2022-12-27T16:42:08.125Z,7.30
2022-12-27T16:44:17.117Z,7.30
2022-12-27T16:46:28.028Z,7.39
2022-12-27T16:48:37.698Z,7.47
2022-12-27T16:51:03.274Z,7.55
2022-12-27T16:53:13.049Z,7.56
2022-12-27T16:55:27.747Z,7.58
2022-12-27T16:57:40.125Z,7.52
2022-12-27T16:59:57.831Z,7.52
2022-12-27T17:02:00.350Z,7.57
2022-12-27T17:03:59.235Z,7.59
2022-12-27T17:08:20.754Z,7.66
2022-12-27T17:10:44.620Z,7.69
2022-12-27T17:12:48.797Z,7.67
2022-12-27T17:14:48.095Z,7.62
2022-12-27T17:16:51.233Z,7.49
2022-12-27T17:18:54.468Z,7.50
2022-12-27T17:21:03.565Z,7.45
2022-12-27T17:23:05.611Z,7.37
2022-12-27T17:25:05.205Z,7.31
2022-12-27T17:27:14.693Z,7.27
2022-12-27T17:29:32.878Z,7.33
2022-12-27T17:31:42.162Z,7.36
2022-12-27T17:33:53.707Z,7.44
2022-12-27T17:36:13.818Z,7.48
2022-12-27T17:38:24.835Z,7.41
2022-12-27T17:40:32.423Z,7.28
2022-12-27T17:42:54.762Z,7.11
2022-12-27T17:45:14.091Z,6.92
2022-12-27T17:47:30.622Z,6.78
2022-12-27T17:49:30.565Z,6.72
2022-12-27T17:51:32.820Z,6.67
2022-12-27T17:53:48.555Z,6.72
2022-12-27T17:56:19.192Z,6.68
2022-12-27T17:58:17.925Z,6.69
2022-12-27T18:00:24.834Z,6.64
2022-12-27T18:02:29.493Z,6.60
2022-12-27T18:04:31.665Z,6.56
2022-12-27T18:06:31.755Z,6.59
2022-12-27T18:08:34.196Z,6.63
2022-12-27T18:10:34.394Z,6.65
2022-12-27T18:12:38.416Z,6.64
2022-12-27T18:14:36.832Z,6.69
2022-12-27T18:16:40.221Z,6.79
2022-12-27T18:18:39.381Z,6.86
2022-12-27T18:20:40.728Z,6.86
2022-12-27T18:22:40.415Z,6.88
2022-12-27T18:24:42.020Z,6.83
2022-12-27T18:26:42.051Z,6.72
2022-12-27T18:28:40.736Z,6.60
2022-12-27T18:30:43.052Z,6.52
2022-12-27T18:32:42.094Z,6.44
2022-12-27T18:34:46.179Z,6.36
2022-12-27T18:36:49.964Z,6.38
2022-12-27T18:38:56.585Z,6.25
2022-12-27T18:41:01.952Z,6.12
2022-12-27T18:43:00.170Z,6.00
2022-12-27T18:45:01.987Z,5.95
2022-12-27T18:47:04.321Z,5.84
2022-12-27T18:49:02.668Z,5.78
2022-12-27T18:51:01.355Z,5.74
2022-12-27T18:53:02.659Z,5.69
2022-12-27T18:55:17.655Z,5.65
2022-12-27T18:57:27.755Z,5.60
2022-12-27T18:59:28.954Z,5.64
2022-12-27T19:01:31.946Z,5.74
2022-12-27T19:03:36.572Z,5.74
2022-12-27T19:05:38.697Z,5.71
2022-12-27T19:07:36.954Z,5.69
2022-12-27T19:09:38.803Z,5.60
2022-12-27T19:11:39.416Z,5.61
2022-12-27T19:13:44.487Z,5.51
2022-12-27T19:15:45.184Z,5.44
2022-12-27T19:17:47.740Z,5.34
2022-12-27T19:19:49.592Z,5.24
2022-12-27T19:21:47.683Z,5.23
2022-12-27T19:23:49.383Z,5.17
2022-12-27T19:26:00.697Z,5.06
2022-12-27T19:28:06.495Z,5.01
2022-12-27T19:30:05.588Z,4.99
2022-12-27T19:32:07.119Z,4.95
2022-12-27T19:34:10.313Z,4.91
2022-12-27T19:36:10.745Z,4.90
2022-12-27T19:38:11.901Z,5.00
2022-12-27T19:40:15.707Z,4.97
2022-12-27T19:42:18.047Z,5.01
2022-12-27T19:44:18.344Z,5.28
2022-12-27T19:46:19.284Z,5.25
2022-12-27T19:48:17.475Z,5.11
2022-12-27T19:50:16.017Z,5.05
2022-12-27T19:52:19.100Z,4.97
2022-12-27T19:54:19.941Z,5.10
2022-12-27T19:56:18.393Z,5.06
2022-12-27T19:58:20.081Z,4.96
2022-12-27T20:00:20.725Z,4.88
2022-12-27T20:02:20.835Z,4.92
2022-12-27T20:04:19.631Z,4.95
2022-12-27T20:06:22.859Z,4.96
2022-12-27T20:08:27.086Z,4.95
2022-12-27T20:10:25.481Z,4.94
2022-12-27T20:12:23.791Z,4.96
2022-12-27T20:14:22.035Z,4.87
2022-12-27T20:16:22.054Z,4.82
2022-12-27T20:18:25.454Z,4.77
2022-12-27T20:20:23.789Z,4.68
2022-12-27T20:22:21.914Z,4.63
2022-12-27T20:24:19.956Z,4.54
2022-12-27T20:26:21.055Z,4.53
2022-12-27T20:28:20.041Z,4.56
2022-12-27T20:30:18.363Z,4.54
2022-12-27T20:32:18.033Z,4.48
2022-12-27T20:34:16.278Z,4.44
2022-12-27T20:36:14.492Z,4.38
2022-12-27T20:38:13.298Z,4.30
2022-12-27T20:40:12.219Z,4.28
2022-12-27T20:42:10.498Z,4.22
2022-12-27T20:44:08.538Z,4.21
2022-12-27T20:46:07.629Z,4.22
2022-12-27T20:48:09.305Z,4.30
2022-12-27T20:50:08.560Z,4.43
2022-12-27T20:52:06.819Z,4.44
2022-12-27T20:54:05.490Z,4.63
2022-12-27T20:56:05.264Z,4.67
2022-12-27T20:58:03.390Z,4.72
2022-12-27T21:00:01.659Z,4.79
2022-12-27T21:02:00.159Z,4.76
2022-12-27T21:04:00.152Z,4.71
2022-12-27T21:05:58.366Z,4.68
2022-12-27T21:07:56.500Z,4.68
2022-12-27T21:09:54.620Z,4.70
2022-12-27T21:11:53.576Z,4.70
2022-12-27T21:13:51.898Z,4.65
2022-12-27T21:15:50.144Z,4.58
2022-12-27T21:17:48.391Z,4.58
2022-12-27T21:19:47.872Z,4.53
2022-12-27T21:21:46.137Z,4.55
2022-12-27T21:23:44.542Z,4.62
2022-12-27T21:25:42.929Z,4.58
2022-12-27T21:27:41.160Z,4.56
2022-12-27T21:29:39.308Z,4.51
2022-12-27T21:31:38.200Z,4.46
2022-12-27T21:33:36.824Z,4.41
2022-12-27T21:35:36.383Z,4.39
2022-12-27T21:37:34.686Z,4.34
2022-12-27T21:39:34.271Z,4.24
2022-12-27T21:41:34.136Z,4.17
2022-12-27T21:43:33.067Z,4.14
2022-12-27T21:45:31.103Z,4.17
2022-12-27T21:47:29.334Z,4.22
2022-12-27T21:49:27.620Z,4.40
2022-12-27T21:51:28.671Z,4.44
2022-12-27T21:53:27.043Z,4.43
2022-12-27T21:55:25.325Z,4.36
2022-12-27T21:57:23.590Z,4.34
2022-12-27T21:59:21.884Z,4.31
2022-12-27T22:01:21.964Z,4.42
2022-12-27T22:03:20.387Z,4.42
2022-12-27T22:05:18.727Z,4.55
2022-12-27T22:07:18.436Z,4.54
2022-12-27T22:09:19.179Z,4.58
2022-12-27T22:11:18.271Z,4.56
2022-12-27T22:13:16.544Z,4.61
2022-12-27T22:15:14.798Z,4.66
2022-12-27T22:17:13.197Z,4.73
2022-12-27T22:19:13.587Z,4.79
2022-12-27T22:21:15.120Z,4.82
2022-12-27T22:23:14.742Z,4.87
2022-12-27T22:25:12.925Z,4.85
2022-12-27T22:27:11.181Z,4.80
2022-12-27T22:29:09.459Z,4.92
2022-12-27T22:31:08.331Z,4.98
2022-12-27T22:33:07.117Z,4.97
2022-12-27T22:35:06.336Z,4.98
2022-12-27T22:37:04.945Z,4.99
2022-12-27T22:39:05.883Z,5.02
2022-12-27T22:41:07.837Z,5.01
2022-12-27T22:43:06.332Z,5.10
2022-12-27T22:45:05.002Z,5.19
2022-12-27T22:49:21.434Z,5.16
2022-12-27T22:51:22.027Z,5.16
2022-12-27T22:53:20.314Z,5.22
2022-12-27T22:55:19.887Z,5.19
2022-12-27T22:57:18.027Z,5.19
2022-12-27T22:59:17.361Z,5.19
2022-12-27T23:01:17.765Z,5.16
2022-12-27T23:03:16.066Z,5.14
2022-12-27T23:05:14.337Z,5.14
2022-12-27T23:07:12.486Z,5.14
2022-12-27T23:09:11.328Z,5.28
2022-12-27T23:11:14.589Z,5.37
2022-12-27T23:13:12.816Z,5.47
2022-12-27T23:15:12.283Z,5.48
2022-12-27T23:17:10.395Z,5.50
2022-12-27T23:19:09.736Z,5.46
2022-12-27T23:21:21.272Z,5.39
2022-12-27T23:23:22.346Z,5.37
2022-12-27T23:25:20.525Z,5.35
2022-12-27T23:27:19.990Z,5.33
2022-12-27T23:29:18.336Z,5.30
2022-12-27T23:31:17.625Z,5.30
2022-12-27T23:33:16.139Z,5.28
2022-12-27T23:35:14.285Z,5.35
2022-12-27T23:37:12.434Z,5.35
2022-12-27T23:39:10.830Z,5.35
2022-12-27T23:41:09.857Z,5.40
2022-12-27T23:43:41.946Z,5.43
2022-12-27T23:45:27.494Z,5.36
2022-12-27T23:47:25.613Z,5.36
2022-12-27T23:49:23.875Z,5.36
2022-12-27T23:51:22.608Z,5.38
2022-12-27T23:53:20.704Z,5.48
2022-12-27T23:55:19.153Z,5.51
2022-12-27T23:57:20.495Z,5.47
2022-12-27T23:59:22.617Z,5.50
